sensor_id;sensor_type;location;lat;lon;timestamp;temperature;humidity
46732;DHT22;32477;51.474;5.696;2022-09-09T00:01:34;14.10;99.90
46732;DHT22;32477;51.474;5.696;2022-09-09T00:06:59;14.00;99.90
46732;DHT22;32477;51.474;5.696;2022-09-09T00:09:30;14.00;99.90
46732;DHT22;32477;51.474;5.696;2022-09-09T00:12:15;14.00;99.90
46732;DHT22;32477;51.474;5.696;2022-09-09T00:14:55;14.00;99.90
46732;DHT22;32477;51.474;5.696;2022-09-09T00:17:58;14.00;99.90
46732;DHT22;32477;51.474;5.696;2022-09-09T00:23:12;13.80;99.90
46732;DHT22;32477;51.474;5.696;2022-09-09T00:25:46;13.80;99.90
46732;DHT22;32477;51.474;5.696;2022-09-09T00:28:20;13.80;99.90
46732;DHT22;32477;51.474;5.696;2022-09-09T00:30:48;13.70;99.90
46732;DHT22;32477;51.474;5.696;2022-09-09T00:33:24;13.70;99.90
46732;DHT22;32477;51.474;5.696;2022-09-09T00:35:54;13.70;99.90
46732;DHT22;32477;51.474;5.696;2022-09-09T00:38:30;13.70;99.90
46732;DHT22;32477;51.474;5.696;2022-09-09T00:41:26;13.70;99.90
46732;DHT22;32477;51.474;5.696;2022-09-09T00:44:33;13.70;99.90
46732;DHT22;32477;51.474;5.696;2022-09-09T00:47:50;13.60;99.90
46732;DHT22;32477;51.474;5.696;2022-09-09T00:50:07;13.70;99.90
46732;DHT22;32477;51.474;5.696;2022-09-09T00:52:43;13.70;99.90
46732;DHT22;32477;51.474;5.696;2022-09-09T00:57:59;13.80;99.90
46732;DHT22;32477;51.474;5.696;2022-09-09T01:00:27;13.80;99.90
46732;DHT22;32477;51.474;5.696;2022-09-09T01:06:11;13.80;99.90
46732;DHT22;32477;51.474;5.696;2022-09-09T01:09:07;13.80;99.90
46732;DHT22;32477;51.474;5.696;2022-09-09T01:11:49;13.90;99.90
46732;DHT22;32477;51.474;5.696;2022-09-09T01:22:35;13.80;99.90
46732;DHT22;32477;51.474;5.696;2022-09-09T01:25:22;13.80;99.90
46732;DHT22;32477;51.474;5.696;2022-09-09T01:27:59;13.80;99.90
46732;DHT22;32477;51.474;5.696;2022-09-09T01:30:38;13.70;99.90
46732;DHT22;32477;51.474;5.696;2022-09-09T01:33:04;13.70;99.90
46732;DHT22;32477;51.474;5.696;2022-09-09T01:35:53;13.70;99.90
46732;DHT22;32477;51.474;5.696;2022-09-09T01:38:21;13.70;99.90
46732;DHT22;32477;51.474;5.696;2022-09-09T01:40:47;13.70;99.90
46732;DHT22;32477;51.474;5.696;2022-09-09T01:43:14;13.70;99.90
46732;DHT22;32477;51.474;5.696;2022-09-09T01:45:40;13.60;99.90
46732;DHT22;32477;51.474;5.696;2022-09-09T01:48:08;13.70;99.90
46732;DHT22;32477;51.474;5.696;2022-09-09T01:50:33;13.60;99.90
46732;DHT22;32477;51.474;5.696;2022-09-09T01:53:01;13.60;99.90
46732;DHT22;32477;51.474;5.696;2022-09-09T01:55:39;13.60;99.90
46732;DHT22;32477;51.474;5.696;2022-09-09T01:58:53;13.70;99.90
46732;DHT22;32477;51.474;5.696;2022-09-09T02:01:34;13.60;99.90
46732;DHT22;32477;51.474;5.696;2022-09-09T02:04:07;13.60;99.90
46732;DHT22;32477;51.474;5.696;2022-09-09T02:06:38;13.60;99.90
46732;DHT22;32477;51.474;5.696;2022-09-09T02:09:06;13.60;99.90
46732;DHT22;32477;51.474;5.696;2022-09-09T02:11:33;13.60;99.90
46732;DHT22;32477;51.474;5.696;2022-09-09T02:14:15;13.60;99.90
46732;DHT22;32477;51.474;5.696;2022-09-09T02:17:13;13.60;99.90
46732;DHT22;32477;51.474;5.696;2022-09-09T02:19:52;13.70;99.90
46732;DHT22;32477;51.474;5.696;2022-09-09T02:22:20;13.70;99.90
46732;DHT22;32477;51.474;5.696;2022-09-09T02:24:54;13.70;99.90
46732;DHT22;32477;51.474;5.696;2022-09-09T02:27:24;13.60;99.90
46732;DHT22;32477;51.474;5.696;2022-09-09T02:29:51;13.60;99.90
46732;DHT22;32477;51.474;5.696;2022-09-09T02:32:22;13.50;99.90
46732;DHT22;32477;51.474;5.696;2022-09-09T02:34:56;13.60;99.90
46732;DHT22;32477;51.474;5.696;2022-09-09T02:37:29;13.50;99.90
46732;DHT22;32477;51.474;5.696;2022-09-09T02:39:57;13.50;99.90
46732;DHT22;32477;51.474;5.696;2022-09-09T02:42:23;13.60;99.90
46732;DHT22;32477;51.474;5.696;2022-09-09T02:44:49;13.60;99.90
46732;DHT22;32477;51.474;5.696;2022-09-09T02:47:25;13.60;99.90
46732;DHT22;32477;51.474;5.696;2022-09-09T02:55:24;13.60;99.90
46732;DHT22;32477;51.474;5.696;2022-09-09T02:57:55;13.60;99.90
46732;DHT22;32477;51.474;5.696;2022-09-09T03:00:24;13.60;99.90
46732;DHT22;32477;51.474;5.696;2022-09-09T03:02:50;13.60;99.90
46732;DHT22;32477;51.474;5.696;2022-09-09T03:05:16;13.60;99.90
46732;DHT22;32477;51.474;5.696;2022-09-09T03:07:42;13.60;99.90
46732;DHT22;32477;51.474;5.696;2022-09-09T03:10:08;13.60;99.90
46732;DHT22;32477;51.474;5.696;2022-09-09T03:12:35;13.60;99.90
46732;DHT22;32477;51.474;5.696;2022-09-09T03:15:01;13.60;99.90
46732;DHT22;32477;51.474;5.696;2022-09-09T03:17:26;13.60;99.90
46732;DHT22;32477;51.474;5.696;2022-09-09T03:19:53;13.70;99.90
46732;DHT22;32477;51.474;5.696;2022-09-09T03:22:20;13.70;99.90
46732;DHT22;32477;51.474;5.696;2022-09-09T03:24:46;13.90;99.90
46732;DHT22;32477;51.474;5.696;2022-09-09T03:27:12;13.90;99.90
46732;DHT22;32477;51.474;5.696;2022-09-09T03:29:40;14.00;99.90
46732;DHT22;32477;51.474;5.696;2022-09-09T03:32:05;14.00;99.90
46732;DHT22;32477;51.474;5.696;2022-09-09T03:34:31;14.00;99.90
46732;DHT22;32477;51.474;5.696;2022-09-09T03:36:57;14.00;99.90
46732;DHT22;32477;51.474;5.696;2022-09-09T03:39:23;14.10;99.90
46732;DHT22;32477;51.474;5.696;2022-09-09T03:41:48;14.10;99.90
46732;DHT22;32477;51.474;5.696;2022-09-09T03:44:14;14.10;99.90
46732;DHT22;32477;51.474;5.696;2022-09-09T03:46:40;14.20;99.90
46732;DHT22;32477;51.474;5.696;2022-09-09T03:49:05;14.20;99.90
46732;DHT22;32477;51.474;5.696;2022-09-09T03:51:31;14.30;99.90
46732;DHT22;32477;51.474;5.696;2022-09-09T03:53:57;14.30;99.90
46732;DHT22;32477;51.474;5.696;2022-09-09T03:56:24;14.30;99.90
46732;DHT22;32477;51.474;5.696;2022-09-09T03:58:49;14.30;99.90
46732;DHT22;32477;51.474;5.696;2022-09-09T04:01:15;14.40;99.90
46732;DHT22;32477;51.474;5.696;2022-09-09T04:03:43;14.40;99.90
46732;DHT22;32477;51.474;5.696;2022-09-09T04:06:11;14.50;99.90
46732;DHT22;32477;51.474;5.696;2022-09-09T04:08:39;14.50;99.90
46732;DHT22;32477;51.474;5.696;2022-09-09T04:11:05;14.50;99.90
46732;DHT22;32477;51.474;5.696;2022-09-09T04:13:32;14.60;99.90
46732;DHT22;32477;51.474;5.696;2022-09-09T04:16:00;14.60;99.90
46732;DHT22;32477;51.474;5.696;2022-09-09T04:18:26;14.60;99.90
46732;DHT22;32477;51.474;5.696;2022-09-09T04:20:54;14.50;99.90
46732;DHT22;32477;51.474;5.696;2022-09-09T04:23:23;14.50;99.90
46732;DHT22;32477;51.474;5.696;2022-09-09T04:25:54;14.50;99.90
46732;DHT22;32477;51.474;5.696;2022-09-09T04:28:22;14.50;99.90
46732;DHT22;32477;51.474;5.696;2022-09-09T04:30:48;14.60;99.90
46732;DHT22;32477;51.474;5.696;2022-09-09T04:33:14;14.60;99.90
46732;DHT22;32477;51.474;5.696;2022-09-09T04:35:45;14.60;99.90
46732;DHT22;32477;51.474;5.696;2022-09-09T04:38:12;14.60;99.90
46732;DHT22;32477;51.474;5.696;2022-09-09T04:40:38;14.60;99.90
46732;DHT22;32477;51.474;5.696;2022-09-09T04:43:08;14.70;99.90
46732;DHT22;32477;51.474;5.696;2022-09-09T04:45:34;14.70;99.90
46732;DHT22;32477;51.474;5.696;2022-09-09T04:48:00;14.70;99.90
46732;DHT22;32477;51.474;5.696;2022-09-09T04:50:27;14.70;99.90
46732;DHT22;32477;51.474;5.696;2022-09-09T04:52:53;14.70;99.90
46732;DHT22;32477;51.474;5.696;2022-09-09T04:55:19;14.80;99.90
46732;DHT22;32477;51.474;5.696;2022-09-09T04:57:46;14.70;99.90
46732;DHT22;32477;51.474;5.696;2022-09-09T05:00:12;14.70;99.90
46732;DHT22;32477;51.474;5.696;2022-09-09T05:02:39;14.60;99.90
46732;DHT22;32477;51.474;5.696;2022-09-09T05:05:05;14.60;99.90
46732;DHT22;32477;51.474;5.696;2022-09-09T05:07:31;14.50;99.90
46732;DHT22;32477;51.474;5.696;2022-09-09T05:09:57;14.50;99.90
46732;DHT22;32477;51.474;5.696;2022-09-09T05:12:23;14.50;99.90
46732;DHT22;32477;51.474;5.696;2022-09-09T05:14:51;14.50;99.90
46732;DHT22;32477;51.474;5.696;2022-09-09T05:17:17;14.50;99.90
46732;DHT22;32477;51.474;5.696;2022-09-09T05:19:43;14.50;99.90
46732;DHT22;32477;51.474;5.696;2022-09-09T05:22:10;14.50;99.90
46732;DHT22;32477;51.474;5.696;2022-09-09T05:24:37;14.50;99.90
46732;DHT22;32477;51.474;5.696;2022-09-09T05:27:03;14.50;99.90
46732;DHT22;32477;51.474;5.696;2022-09-09T05:29:29;14.60;99.90
46732;DHT22;32477;51.474;5.696;2022-09-09T05:31:55;14.50;99.90
46732;DHT22;32477;51.474;5.696;2022-09-09T05:34:20;14.60;99.90
46732;DHT22;32477;51.474;5.696;2022-09-09T05:36:46;14.60;99.90
46732;DHT22;32477;51.474;5.696;2022-09-09T05:39:12;14.60;99.90
46732;DHT22;32477;51.474;5.696;2022-09-09T05:41:38;14.60;99.90
46732;DHT22;32477;51.474;5.696;2022-09-09T05:44:04;14.60;99.90
46732;DHT22;32477;51.474;5.696;2022-09-09T05:46:30;14.60;99.90
46732;DHT22;32477;51.474;5.696;2022-09-09T05:48:56;14.70;99.90
46732;DHT22;32477;51.474;5.696;2022-09-09T05:51:24;14.70;99.90
46732;DHT22;32477;51.474;5.696;2022-09-09T05:53:52;14.80;99.90
46732;DHT22;32477;51.474;5.696;2022-09-09T05:56:20;14.90;99.90
46732;DHT22;32477;51.474;5.696;2022-09-09T05:58:47;15.00;99.90
46732;DHT22;32477;51.474;5.696;2022-09-09T06:01:15;15.30;99.90
46732;DHT22;32477;51.474;5.696;2022-09-09T06:03:43;15.60;99.90
46732;DHT22;32477;51.474;5.696;2022-09-09T06:06:11;15.90;99.90
46732;DHT22;32477;51.474;5.696;2022-09-09T06:08:39;16.10;99.90
46732;DHT22;32477;51.474;5.696;2022-09-09T06:11:31;16.10;99.90
46732;DHT22;32477;51.474;5.696;2022-09-09T06:13:57;16.10;99.90
46732;DHT22;32477;51.474;5.696;2022-09-09T06:16:26;16.40;99.90
46732;DHT22;32477;51.474;5.696;2022-09-09T06:18:53;16.80;99.90
46732;DHT22;32477;51.474;5.696;2022-09-09T06:23:49;17.30;99.90
46732;DHT22;32477;51.474;5.696;2022-09-09T06:26:21;17.50;99.90
46732;DHT22;32477;51.474;5.696;2022-09-09T06:28:49;17.50;99.90
46732;DHT22;32477;51.474;5.696;2022-09-09T06:31:24;17.60;99.90
46732;DHT22;32477;51.474;5.696;2022-09-09T06:33:52;17.80;99.90
46732;DHT22;32477;51.474;5.696;2022-09-09T06:36:21;17.80;99.90
46732;DHT22;32477;51.474;5.696;2022-09-09T06:38:47;18.10;99.90
46732;DHT22;32477;51.474;5.696;2022-09-09T06:41:15;18.10;99.90
46732;DHT22;32477;51.474;5.696;2022-09-09T06:43:41;17.50;99.90
46732;DHT22;32477;51.474;5.696;2022-09-09T06:46:19;17.20;99.90
46732;DHT22;32477;51.474;5.696;2022-09-09T06:48:46;17.30;99.90
46732;DHT22;32477;51.474;5.696;2022-09-09T06:51:17;17.40;99.90
46732;DHT22;32477;51.474;5.696;2022-09-09T06:53:45;17.80;99.90
46732;DHT22;32477;51.474;5.696;2022-09-09T06:58:40;18.60;99.90
46732;DHT22;32477;51.474;5.696;2022-09-09T07:01:13;18.70;99.90
46732;DHT22;32477;51.474;5.696;2022-09-09T07:03:40;18.10;99.90
46732;DHT22;32477;51.474;5.696;2022-09-09T07:06:09;17.60;99.90
46732;DHT22;32477;51.474;5.696;2022-09-09T07:08:39;17.20;99.90
46732;DHT22;32477;51.474;5.696;2022-09-09T07:11:06;17.10;99.90
46732;DHT22;32477;51.474;5.696;2022-09-09T07:13:32;17.70;99.90
46732;DHT22;32477;51.474;5.696;2022-09-09T07:16:09;18.60;99.90
46732;DHT22;32477;51.474;5.696;2022-09-09T07:18:35;19.40;99.90
46732;DHT22;32477;51.474;5.696;2022-09-09T07:21:03;19.70;99.90
46732;DHT22;32477;51.474;5.696;2022-09-09T07:23:30;19.80;99.90
46732;DHT22;32477;51.474;5.696;2022-09-09T07:25:56;19.90;99.90
46732;DHT22;32477;51.474;5.696;2022-09-09T07:28:23;19.90;99.90
46732;DHT22;32477;51.474;5.696;2022-09-09T07:30:59;20.00;99.90
46732;DHT22;32477;51.474;5.696;2022-09-09T07:33:26;20.00;99.90
46732;DHT22;32477;51.474;5.696;2022-09-09T07:35:52;20.40;99.90
46732;DHT22;32477;51.474;5.696;2022-09-09T07:38:19;20.40;99.90
46732;DHT22;32477;51.474;5.696;2022-09-09T07:40:45;20.40;99.90
46732;DHT22;32477;51.474;5.696;2022-09-09T07:43:11;20.10;99.90
46732;DHT22;32477;51.474;5.696;2022-09-09T07:45:37;19.70;99.90
46732;DHT22;32477;51.474;5.696;2022-09-09T07:48:03;19.70;99.90
46732;DHT22;32477;51.474;5.696;2022-09-09T07:50:29;19.70;99.90
46732;DHT22;32477;51.474;5.696;2022-09-09T07:52:55;19.50;99.90
46732;DHT22;32477;51.474;5.696;2022-09-09T07:55:21;19.20;99.90
46732;DHT22;32477;51.474;5.696;2022-09-09T07:57:50;18.90;99.90
46732;DHT22;32477;51.474;5.696;2022-09-09T08:00:16;18.70;99.90
46732;DHT22;32477;51.474;5.696;2022-09-09T08:02:42;18.70;99.90
46732;DHT22;32477;51.474;5.696;2022-09-09T08:05:07;18.60;99.90
46732;DHT22;32477;51.474;5.696;2022-09-09T08:07:34;18.40;99.90
46732;DHT22;32477;51.474;5.696;2022-09-09T08:09:59;18.40;99.90
46732;DHT22;32477;51.474;5.696;2022-09-09T08:12:25;18.50;99.90
46732;DHT22;32477;51.474;5.696;2022-09-09T08:14:50;19.00;99.90
46732;DHT22;32477;51.474;5.696;2022-09-09T08:17:17;19.50;99.90
46732;DHT22;32477;51.474;5.696;2022-09-09T08:19:42;19.50;99.90
46732;DHT22;32477;51.474;5.696;2022-09-09T08:22:09;19.20;99.90
46732;DHT22;32477;51.474;5.696;2022-09-09T08:24:35;19.10;99.90
46732;DHT22;32477;51.474;5.696;2022-09-09T08:27:01;19.10;99.90
46732;DHT22;32477;51.474;5.696;2022-09-09T08:29:26;18.90;99.90
46732;DHT22;32477;51.474;5.696;2022-09-09T08:31:56;18.80;99.90
46732;DHT22;32477;51.474;5.696;2022-09-09T08:34:23;18.60;99.90
46732;DHT22;32477;51.474;5.696;2022-09-09T08:36:50;18.60;99.90
46732;DHT22;32477;51.474;5.696;2022-09-09T08:39:17;18.40;99.90
46732;DHT22;32477;51.474;5.696;2022-09-09T08:50:22;18.50;99.90
46732;DHT22;32477;51.474;5.696;2022-09-09T08:55:44;18.90;99.90
46732;DHT22;32477;51.474;5.696;2022-09-09T09:12:20;18.90;99.90
46732;DHT22;32477;51.474;5.696;2022-09-09T09:14:48;18.90;99.90
46732;DHT22;32477;51.474;5.696;2022-09-09T09:17:21;18.80;99.90
46732;DHT22;32477;51.474;5.696;2022-09-09T09:19:49;18.60;99.90
46732;DHT22;32477;51.474;5.696;2022-09-09T09:22:30;18.40;99.90
46732;DHT22;32477;51.474;5.696;2022-09-09T09:30:57;18.30;99.90
46732;DHT22;32477;51.474;5.696;2022-09-09T09:33:46;18.30;99.90
46732;DHT22;32477;51.474;5.696;2022-09-09T09:36:13;18.40;99.90
46732;DHT22;32477;51.474;5.696;2022-09-09T09:41:30;18.60;99.90
46732;DHT22;32477;51.474;5.696;2022-09-09T09:43:56;18.60;99.90
46732;DHT22;32477;51.474;5.696;2022-09-09T09:46:24;18.60;99.90
46732;DHT22;32477;51.474;5.696;2022-09-09T09:49:02;18.50;99.90
46732;DHT22;32477;51.474;5.696;2022-09-09T09:51:29;18.40;99.90
46732;DHT22;32477;51.474;5.696;2022-09-09T09:56:38;18.30;99.90
46732;DHT22;32477;51.474;5.696;2022-09-09T09:59:17;18.30;99.90
46732;DHT22;32477;51.474;5.696;2022-09-09T10:01:44;18.20;99.90
46732;DHT22;32477;51.474;5.696;2022-09-09T10:04:21;18.20;99.90
46732;DHT22;32477;51.474;5.696;2022-09-09T10:06:48;18.40;99.90
46732;DHT22;32477;51.474;5.696;2022-09-09T10:11:57;18.90;99.90
46732;DHT22;32477;51.474;5.696;2022-09-09T10:17:17;19.30;99.90
46732;DHT22;32477;51.474;5.696;2022-09-09T10:26:16;19.30;99.90
46732;DHT22;32477;51.474;5.696;2022-09-09T10:29:09;19.00;99.90
46732;DHT22;32477;51.474;5.696;2022-09-09T10:31:55;18.90;99.90
46732;DHT22;32477;51.474;5.696;2022-09-09T10:34:56;18.80;99.90
46732;DHT22;32477;51.474;5.696;2022-09-09T10:52:02;16.80;99.90
46732;DHT22;32477;51.474;5.696;2022-09-09T11:00:10;16.40;99.90
46732;DHT22;32477;51.474;5.696;2022-09-09T11:02:40;16.40;99.90
46732;DHT22;32477;51.474;5.696;2022-09-09T11:05:21;16.30;99.90
46732;DHT22;32477;51.474;5.696;2022-09-09T11:08:23;16.30;99.90
46732;DHT22;32477;51.474;5.696;2022-09-09T11:11:10;16.20;99.90
46732;DHT22;32477;51.474;5.696;2022-09-09T11:13:55;16.10;99.90
46732;DHT22;32477;51.474;5.696;2022-09-09T11:16:33;16.00;99.90
46732;DHT22;32477;51.474;5.696;2022-09-09T11:21:45;15.90;99.90
46732;DHT22;32477;51.474;5.696;2022-09-09T11:24:20;15.90;99.90
46732;DHT22;32477;51.474;5.696;2022-09-09T11:26:54;16.00;99.90
46732;DHT22;32477;51.474;5.696;2022-09-09T11:40:19;18.20;99.90
46732;DHT22;32477;51.474;5.696;2022-09-09T11:42:47;18.60;99.90
46732;DHT22;32477;51.474;5.696;2022-09-09T11:45:25;19.10;99.90
46732;DHT22;32477;51.474;5.696;2022-09-09T11:48:03;19.00;99.90
46732;DHT22;32477;51.474;5.696;2022-09-09T11:50:36;18.70;99.90
46732;DHT22;32477;51.474;5.696;2022-09-09T11:53:18;18.60;99.90
46732;DHT22;32477;51.474;5.696;2022-09-09T11:55:46;18.50;99.90
46732;DHT22;32477;51.474;5.696;2022-09-09T12:00:46;18.60;99.90
46732;DHT22;32477;51.474;5.696;2022-09-09T12:03:35;18.40;99.90
46732;DHT22;32477;51.474;5.696;2022-09-09T12:06:12;18.40;99.90
46732;DHT22;32477;51.474;5.696;2022-09-09T12:08:43;18.40;99.90
46732;DHT22;32477;51.474;5.696;2022-09-09T12:11:10;18.50;99.90
46732;DHT22;32477;51.474;5.696;2022-09-09T12:13:36;18.50;99.90
46732;DHT22;32477;51.474;5.696;2022-09-09T12:16:02;18.40;99.90
46732;DHT22;32477;51.474;5.696;2022-09-09T12:18:35;18.40;99.90
46732;DHT22;32477;51.474;5.696;2022-09-09T12:24:09;18.20;99.90
46732;DHT22;32477;51.474;5.696;2022-09-09T12:26:56;18.30;99.90
46732;DHT22;32477;51.474;5.696;2022-09-09T12:29:50;18.60;99.90
46732;DHT22;32477;51.474;5.696;2022-09-09T12:32:26;18.80;99.90
46732;DHT22;32477;51.474;5.696;2022-09-09T12:35:00;19.00;99.90
46732;DHT22;32477;51.474;5.696;2022-09-09T12:40:03;19.40;99.90
46732;DHT22;32477;51.474;5.696;2022-09-09T12:42:30;19.70;99.90
46732;DHT22;32477;51.474;5.696;2022-09-09T12:47:26;19.90;99.90
46732;DHT22;32477;51.474;5.696;2022-09-09T12:49:53;20.00;99.90
46732;DHT22;32477;51.474;5.696;2022-09-09T12:52:31;20.10;99.90
46732;DHT22;32477;51.474;5.696;2022-09-09T12:55:00;20.10;99.90
46732;DHT22;32477;51.474;5.696;2022-09-09T12:57:36;20.40;99.90
46732;DHT22;32477;51.474;5.696;2022-09-09T13:00:17;20.20;99.90
46732;DHT22;32477;51.474;5.696;2022-09-09T13:02:57;19.90;99.90
46732;DHT22;32477;51.474;5.696;2022-09-09T13:05:42;19.50;99.90
46732;DHT22;32477;51.474;5.696;2022-09-09T13:08:10;19.60;99.90
46732;DHT22;32477;51.474;5.696;2022-09-09T13:13:29;19.50;99.90
46732;DHT22;32477;51.474;5.696;2022-09-09T13:15:57;19.40;99.90
46732;DHT22;32477;51.474;5.696;2022-09-09T13:18:29;19.30;99.90
46732;DHT22;32477;51.474;5.696;2022-09-09T13:20:56;19.30;99.90
46732;DHT22;32477;51.474;5.696;2022-09-09T13:23:32;19.30;99.90
46732;DHT22;32477;51.474;5.696;2022-09-09T13:26:00;19.00;99.90
46732;DHT22;32477;51.474;5.696;2022-09-09T13:28:28;19.00;99.90
46732;DHT22;32477;51.474;5.696;2022-09-09T13:31:05;19.10;99.90
46732;DHT22;32477;51.474;5.696;2022-09-09T13:33:37;19.60;99.90
46732;DHT22;32477;51.474;5.696;2022-09-09T13:36:06;20.60;99.90
46732;DHT22;32477;51.474;5.696;2022-09-09T13:38:35;21.40;99.90
46732;DHT22;32477;51.474;5.696;2022-09-09T13:41:07;21.90;99.90
46732;DHT22;32477;51.474;5.696;2022-09-09T13:43:44;21.70;99.90
46732;DHT22;32477;51.474;5.696;2022-09-09T13:46:39;22.20;99.90
46732;DHT22;32477;51.474;5.696;2022-09-09T13:54:06;20.80;99.90
46732;DHT22;32477;51.474;5.696;2022-09-09T13:56:33;20.20;99.90
46732;DHT22;32477;51.474;5.696;2022-09-09T13:58:59;19.90;99.90
46732;DHT22;32477;51.474;5.696;2022-09-09T14:01:24;19.90;99.90
46732;DHT22;32477;51.474;5.696;2022-09-09T14:03:50;20.40;99.90
46732;DHT22;32477;51.474;5.696;2022-09-09T14:06:16;21.00;99.90
46732;DHT22;32477;51.474;5.696;2022-09-09T14:08:44;21.40;99.90
46732;DHT22;32477;51.474;5.696;2022-09-09T14:11:12;21.20;99.90
46732;DHT22;32477;51.474;5.696;2022-09-09T14:13:38;20.90;99.90
46732;DHT22;32477;51.474;5.696;2022-09-09T14:16:04;21.50;99.90
46732;DHT22;32477;51.474;5.696;2022-09-09T14:18:30;22.30;99.90
46732;DHT22;32477;51.474;5.696;2022-09-09T14:20:55;22.40;99.90
46732;DHT22;32477;51.474;5.696;2022-09-09T14:23:24;22.60;99.90
46732;DHT22;32477;51.474;5.696;2022-09-09T14:25:50;22.40;99.90
46732;DHT22;32477;51.474;5.696;2022-09-09T14:28:16;22.00;99.90
46732;DHT22;32477;51.474;5.696;2022-09-09T14:30:43;21.70;99.90
46732;DHT22;32477;51.474;5.696;2022-09-09T14:33:11;21.20;99.90
46732;DHT22;32477;51.474;5.696;2022-09-09T14:35:37;20.80;99.90
46732;DHT22;32477;51.474;5.696;2022-09-09T14:38:04;20.50;99.90
46732;DHT22;32477;51.474;5.696;2022-09-09T14:40:30;20.30;99.90
46732;DHT22;32477;51.474;5.696;2022-09-09T14:42:56;20.30;99.90
46732;DHT22;32477;51.474;5.696;2022-09-09T14:45:23;20.10;99.90
46732;DHT22;32477;51.474;5.696;2022-09-09T14:47:50;20.50;99.90
46732;DHT22;32477;51.474;5.696;2022-09-09T14:50:17;21.20;99.90
46732;DHT22;32477;51.474;5.696;2022-09-09T14:52:43;21.70;99.90
46732;DHT22;32477;51.474;5.696;2022-09-09T14:55:09;21.70;99.90
46732;DHT22;32477;51.474;5.696;2022-09-09T14:57:34;21.30;99.90
46732;DHT22;32477;51.474;5.696;2022-09-09T15:00:02;21.20;99.90
46732;DHT22;32477;51.474;5.696;2022-09-09T15:02:29;21.00;99.90
46732;DHT22;32477;51.474;5.696;2022-09-09T15:04:55;20.70;99.90
46732;DHT22;32477;51.474;5.696;2022-09-09T15:07:24;20.60;99.90
46732;DHT22;32477;51.474;5.696;2022-09-09T15:09:50;20.60;99.90
46732;DHT22;32477;51.474;5.696;2022-09-09T15:12:15;20.40;99.90
46732;DHT22;32477;51.474;5.696;2022-09-09T15:14:44;20.40;99.90
46732;DHT22;32477;51.474;5.696;2022-09-09T15:17:10;20.10;99.90
46732;DHT22;32477;51.474;5.696;2022-09-09T15:19:37;20.00;99.90
46732;DHT22;32477;51.474;5.696;2022-09-09T15:22:06;20.00;99.90
46732;DHT22;32477;51.474;5.696;2022-09-09T15:24:32;20.10;99.90
46732;DHT22;32477;51.474;5.696;2022-09-09T15:26:58;20.10;99.90
46732;DHT22;32477;51.474;5.696;2022-09-09T15:29:24;20.20;99.90
46732;DHT22;32477;51.474;5.696;2022-09-09T15:31:50;20.20;99.90
46732;DHT22;32477;51.474;5.696;2022-09-09T15:34:15;20.10;99.90
46732;DHT22;32477;51.474;5.696;2022-09-09T15:36:43;20.00;99.90
46732;DHT22;32477;51.474;5.696;2022-09-09T15:39:11;20.00;99.90
46732;DHT22;32477;51.474;5.696;2022-09-09T15:41:38;20.10;99.90
46732;DHT22;32477;51.474;5.696;2022-09-09T15:44:04;20.00;99.90
46732;DHT22;32477;51.474;5.696;2022-09-09T15:46:36;19.90;99.90
46732;DHT22;32477;51.474;5.696;2022-09-09T15:49:11;19.90;99.90
46732;DHT22;32477;51.474;5.696;2022-09-09T15:51:41;20.00;99.90
46732;DHT22;32477;51.474;5.696;2022-09-09T15:54:08;20.30;99.90
46732;DHT22;32477;51.474;5.696;2022-09-09T15:56:33;20.40;99.90
46732;DHT22;32477;51.474;5.696;2022-09-09T15:59:00;20.40;99.90
46732;DHT22;32477;51.474;5.696;2022-09-09T16:01:30;20.30;99.90
46732;DHT22;32477;51.474;5.696;2022-09-09T16:03:57;20.20;99.90
46732;DHT22;32477;51.474;5.696;2022-09-09T16:06:24;20.00;99.90
46732;DHT22;32477;51.474;5.696;2022-09-09T16:08:52;19.80;99.90
46732;DHT22;32477;51.474;5.696;2022-09-09T16:11:21;19.60;99.90
46732;DHT22;32477;51.474;5.696;2022-09-09T16:13:49;19.60;99.90
46732;DHT22;32477;51.474;5.696;2022-09-09T16:16:16;19.50;99.90
46732;DHT22;32477;51.474;5.696;2022-09-09T16:18:44;19.40;99.90
46732;DHT22;32477;51.474;5.696;2022-09-09T16:21:18;19.40;99.90
46732;DHT22;32477;51.474;5.696;2022-09-09T16:23:44;19.30;99.90
46732;DHT22;32477;51.474;5.696;2022-09-09T16:26:11;19.20;99.90
46732;DHT22;32477;51.474;5.696;2022-09-09T16:28:37;19.10;99.90
46732;DHT22;32477;51.474;5.696;2022-09-09T16:31:06;19.10;99.90
46732;DHT22;32477;51.474;5.696;2022-09-09T16:33:31;18.90;99.90
46732;DHT22;32477;51.474;5.696;2022-09-09T16:35:57;18.80;99.90
46732;DHT22;32477;51.474;5.696;2022-09-09T16:38:23;18.50;99.90
46732;DHT22;32477;51.474;5.696;2022-09-09T16:40:49;18.40;99.90
46732;DHT22;32477;51.474;5.696;2022-09-09T16:43:15;18.30;99.90
46732;DHT22;32477;51.474;5.696;2022-09-09T16:45:42;18.20;99.90
46732;DHT22;32477;51.474;5.696;2022-09-09T16:48:08;18.10;99.90
46732;DHT22;32477;51.474;5.696;2022-09-09T16:50:34;17.90;99.90
46732;DHT22;32477;51.474;5.696;2022-09-09T16:53:00;17.70;99.90
46732;DHT22;32477;51.474;5.696;2022-09-09T16:55:28;17.40;99.90
46732;DHT22;32477;51.474;5.696;2022-09-09T16:57:54;17.30;99.90
46732;DHT22;32477;51.474;5.696;2022-09-09T17:00:20;17.10;99.90
46732;DHT22;32477;51.474;5.696;2022-09-09T17:02:45;16.90;99.90
46732;DHT22;32477;51.474;5.696;2022-09-09T17:05:11;16.70;99.90
46732;DHT22;32477;51.474;5.696;2022-09-09T17:07:37;15.40;99.90
46732;DHT22;32477;51.474;5.696;2022-09-09T17:10:04;14.90;99.90
46732;DHT22;32477;51.474;5.696;2022-09-09T17:12:31;14.80;99.90
46732;DHT22;32477;51.474;5.696;2022-09-09T17:14:57;14.90;99.90
46732;DHT22;32477;51.474;5.696;2022-09-09T17:17:25;15.10;99.90
46732;DHT22;32477;51.474;5.696;2022-09-09T17:19:52;15.20;99.90
46732;DHT22;32477;51.474;5.696;2022-09-09T17:22:18;15.30;99.90
46732;DHT22;32477;51.474;5.696;2022-09-09T17:24:46;15.20;99.90
46732;DHT22;32477;51.474;5.696;2022-09-09T17:27:12;15.10;99.90
46732;DHT22;32477;51.474;5.696;2022-09-09T17:29:38;15.00;99.90
46732;DHT22;32477;51.474;5.696;2022-09-09T17:32:05;14.90;99.90
46732;DHT22;32477;51.474;5.696;2022-09-09T17:34:31;14.90;99.90
46732;DHT22;32477;51.474;5.696;2022-09-09T17:36:56;14.90;99.90
46732;DHT22;32477;51.474;5.696;2022-09-09T17:39:22;14.90;99.90
46732;DHT22;32477;51.474;5.696;2022-09-09T17:41:48;14.90;99.90
46732;DHT22;32477;51.474;5.696;2022-09-09T17:44:14;14.90;99.90
46732;DHT22;32477;51.474;5.696;2022-09-09T17:46:42;14.90;99.90
46732;DHT22;32477;51.474;5.696;2022-09-09T17:49:10;15.00;99.90
46732;DHT22;32477;51.474;5.696;2022-09-09T17:51:38;15.00;99.90
46732;DHT22;32477;51.474;5.696;2022-09-09T17:54:16;15.00;99.90
46732;DHT22;32477;51.474;5.696;2022-09-09T17:56:42;15.00;99.90
46732;DHT22;32477;51.474;5.696;2022-09-09T17:59:10;15.00;99.90